Tuntutuliak, Alaska
Current Conditions -  °F | °C
As of 6:56 AM on Wednesday 26 Nov 2014 (Local Time) from PPIT Reporting Station
Scattered Clouds Scattered Clouds  
Wind Chill: 17°   Ceiling: Unl
Heat Index: 27°   Visibility: 10mi
Dew Point: 26°   Wind: 10mph
Humidity: 96%   Direction: 70°ENE
Pressure: 30.21"   Gusts: NA
Location:  60.33°N, 162.74°W
Report Text: PPIT 261556Z AUTO 07009KT 10SM FEW027 SCT090 M03/M03 A3021 RMK AO2 SLP231 T10281033 FZRANO
Loading
Personal Weather Stations






























Interactive Weather Map New forecast layout! Learn more

10-Day Weather Forecast

Advertisements
Track Severe Weather on mobile